Time;durP1;ratioP1;P1;durP2;ratioP2;P2;SDS_P1;SDS_P2;PMS_P1;PMS_P2;Temp;Humidity;BMP_temperature;BMP_pressure;BME280_temperature;BME280_humidity;BME280_pressure;Samples;Min_cycle;Max_cycle;Signal;HPM_P1;HPM_P2
2022/05/15 00:06:22;;;;;;;4.32;2.40;;;;;;;23.02;33.37;100547.31;20354159;28;97462;-75
2022/05/15 00:16:24;;;;;;;4.43;2.10;;;;;;;22.97;33.57;100557.44;20352385;28;101283;-74
2022/05/15 00:26:25;;;;;;;5.35;2.78;;;;;;;22.97;33.84;100546.00;20354777;28;97695;-74
2022/05/15 00:36:25;;;;;;;4.55;2.50;;;;;;;22.97;33.80;100554.78;20368984;28;100027;-75
2022/05/15 00:46:32;;;;;;;5.55;2.30;;;;;;;23.00;33.73;100562.44;20382448;28;100047;-75
2022/05/15 00:56:37;;;;;;;5.68;2.53;;;;;;;23.10;33.87;100559.06;20407884;28;98595;-75
2022/05/15 01:06:43;;;;;;;3.90;3.00;;;;;;;23.03;33.47;100549.00;20367479;28;98278;-75
2022/05/15 01:16:44;;;;;;;4.75;2.35;;;;;;;22.95;33.96;100538.22;20380213;28;98611;-75
2022/05/15 01:26:45;;;;;;;4.07;2.55;;;;;;;22.90;33.91;100550.97;20379561;28;100977;-75
2022/05/15 01:36:45;;;;;;;4.35;2.40;;;;;;;22.83;34.26;100549.81;20384159;28;97113;-75
2022/05/15 01:46:46;;;;;;;4.18;2.30;;;;;;;22.78;34.27;100563.38;20372070;28;97497;-75
2022/05/15 01:56:46;;;;;;;5.45;2.60;;;;;;;22.67;34.28;100561.59;20369598;28;97444;-75
2022/05/15 02:06:47;;;;;;;3.75;2.33;;;;;;;22.52;34.67;100573.38;20384187;28;97952;-75
2022/05/15 02:16:48;;;;;;;15.50;10.37;;;;;;;22.44;35.53;100568.75;20388332;28;97643;-75
2022/05/15 02:26:48;;;;;;;7.05;4.10;;;;;;;22.29;35.66;100576.06;20384019;28;97544;-76
2022/05/15 02:36:49;;;;;;;4.40;2.65;;;;;;;22.19;35.95;100575.94;20378765;28;97300;-75
2022/05/15 02:46:49;;;;;;;4.43;2.72;;;;;;;22.22;35.67;100582.75;20378001;28;97679;-75
2022/05/15 02:57:46;;;;;;;3.53;2.45;;;;;;;22.01;36.23;100593.22;20384641;28;100885;-75
2022/05/15 03:07:48;;;;;;;4.70;3.00;;;;;;;22.02;36.29;100606.25;20368962;28;98809;-75
2022/05/15 03:17:48;;;;;;;9.57;4.30;;;;;;;22.04;36.26;100595.59;20372972;28;97186;-75
2022/05/15 03:27:49;;;;;;;9.50;4.82;;;;;;;21.93;36.64;100603.50;20377920;28;97767;-75
2022/05/15 03:37:49;;;;;;;10.68;4.20;;;;;;;21.86;36.65;100608.41;20364923;28;97595;-76
2022/05/15 03:47:53;;;;;;;7.90;4.25;;;;;;;21.79;37.00;100621.22;20356805;28;97262;-76
2022/05/15 03:57:56;;;;;;;8.75;3.92;;;;;;;21.75;37.25;100617.97;20378186;28;97466;-75
2022/05/15 04:07:57;;;;;;;;;;;;;;;21.84;37.15;100628.78;20370258;28;96857;-75
2022/05/15 04:17:57;;;;;;;5.82;3.10;;;;;;;21.81;37.46;100636.91;20373996;28;98861;-75
2022/05/15 04:27:58;;;;;;;7.88;3.13;;;;;;;21.79;37.36;100634.41;20381619;28;96929;-75
2022/05/15 04:37:58;;;;;;;6.25;3.13;;;;;;;21.72;37.71;100631.38;20387126;28;98142;-76
2022/05/15 04:47:58;;;;;;;5.82;2.80;;;;;;;21.73;37.72;100651.50;20385918;28;97068;-76
2022/05/15 04:57:59;;;;;;;4.03;2.38;;;;;;;21.70;37.71;100661.44;20389741;28;97745;-76
2022/05/15 05:07:59;;;;;;;3.50;2.10;;;;;;;21.72;37.83;100652.47;20377762;28;99474;-76
2022/05/15 05:18:00;;;;;;;5.15;2.00;;;;;;;21.75;37.89;100662.78;20376687;28;98874;-74
2022/05/15 05:28:02;;;;;;;6.53;2.00;;;;;;;21.82;37.88;100663.16;20356965;28;100038;-74
2022/05/15 05:38:04;;;;;;;6.47;2.30;;;;;;;21.92;37.54;100671.19;20344487;28;97280;-75
2022/05/15 05:48:05;;;;;;;4.57;2.13;;;;;;;21.96;37.58;100670.03;20388782;28;97471;-75
2022/05/15 05:58:07;;;;;;;8.98;3.30;;;;;;;22.01;37.90;100670.50;20378182;28;97951;-73
2022/05/15 06:08:08;;;;;;;9.13;5.10;;;;;;;22.10;38.19;100671.59;20361515;28;97058;-74
2022/05/15 06:18:08;;;;;;;6.57;3.22;;;;;;;22.18;37.74;100678.91;20363774;28;97586;-73
2022/05/15 06:28:09;;;;;;;3.33;2.58;;;;;;;22.20;37.63;100684.91;20369641;28;97872;-75
2022/05/15 06:38:09;;;;;;;8.57;2.45;;;;;;;22.23;37.04;100684.69;20372466;28;98075;-75
2022/05/15 06:48:10;;;;;;;4.95;1.95;;;;;;;22.34;36.23;100683.84;20373582;28;97128;-75
2022/05/15 06:58:10;;;;;;;6.20;1.83;;;;;;;22.38;35.59;100680.88;20366044;28;97084;-72
2022/05/15 07:08:11;;;;;;;6.38;1.90;;;;;;;22.45;34.69;100677.75;20403239;28;100689;-73
2022/05/15 07:18:12;;;;;;;5.80;1.90;;;;;;;22.53;33.70;100673.56;20372753;28;100191;-74
2022/05/15 07:28:12;;;;;;;2.85;1.60;;;;;;;22.61;32.92;100670.31;20381224;28;97708;-75
2022/05/15 07:38:15;;;;;;;6.53;1.77;;;;;;;22.67;32.64;100676.91;20356383;28;99654;-75
2022/05/15 07:48:15;;;;;;;3.70;1.45;;;;;;;22.73;32.25;100673.78;20355779;28;101297;-74
2022/05/15 07:58:16;;;;;;;2.65;1.60;;;;;;;22.81;32.82;100670.53;20371280;28;97934;-77
2022/05/15 08:08:16;;;;;;;2.97;1.70;;;;;;;22.91;32.08;100674.13;20371845;28;97048;-79
2022/05/15 08:28:37;;;;;;;26.35;9.15;;;;;;;23.10;32.15;100662.91;20363051;28;97379;-74
2022/05/15 08:38:38;;;;;;;5.93;2.72;;;;;;;23.19;30.96;100671.91;20357685;28;100660;-74
2022/05/15 08:48:39;;;;;;;6.78;3.17;;;;;;;23.31;33.08;100663.00;20371049;28;97106;-75
2022/05/15 08:58:52;;;;;;;5.07;2.00;;;;;;;23.44;32.74;100661.97;20371095;28;97290;-75
2022/05/15 09:08:57;;;;;;;84.15;18.60;;;;;;;23.55;33.63;100653.16;20364803;28;97143;-74
2022/05/15 09:19:06;;;;;;;14.85;3.17;;;;;;;23.64;32.42;100641.78;20372629;28;98921;-74
2022/05/15 09:29:16;;;;;;;8.40;2.70;;;;;;;23.74;32.06;100636.56;20360061;28;101618;-74
2022/05/15 09:39:27;;;;;;;7.43;1.80;;;;;;;23.79;32.16;100642.31;20349487;28;98506;-76
2022/05/15 09:49:32;;;;;;;6.15;1.80;;;;;;;23.91;32.36;100625.41;20344116;28;98604;-75
2022/05/15 09:59:33;;;;;;;2.30;1.58;;;;;;;24.07;32.84;100634.69;20375959;28;97385;-77
2022/05/15 10:09:35;;;;;;;4.97;1.60;;;;;;;24.18;31.79;100624.03;20391411;28;98316;-79
2022/05/15 10:19:40;;;;;;;5.93;1.33;;;;;;;24.33;30.45;100616.56;20400018;28;97471;-78
2022/05/15 10:29:58;;;;;;;4.60;1.45;;;;;;;24.50;29.92;100615.09;20417054;28;97952;-79
2022/05/15 10:40:10;;;;;;;7.65;1.75;;;;;;;24.66;29.83;100604.00;20386632;28;101155;-80
2022/05/15 10:50:27;;;;;;;3.92;1.67;;;;;;;24.82;29.32;100603.47;20383672;28;98158;-79
2022/05/15 11:00:46;;;;;;;4.28;1.35;;;;;;;25.01;28.39;100607.97;20378617;28;97128;-80
2022/05/15 11:11:06;;;;;;;2.63;1.48;;;;;;;25.18;28.70;100598.47;20384961;28;100079;-79
2022/05/15 11:21:36;;;;;;;8.13;1.90;;;;;;;25.31;29.00;100586.75;20397440;28;97266;-81
2022/05/15 11:31:44;;;;;;;2.95;1.70;;;;;;;25.44;29.58;100579.34;20403572;28;96936;-82
2022/05/15 11:52:08;;;;;;;3.78;1.80;;;;;;;25.68;30.00;100567.44;20402823;28;97620;-81
2022/05/15 12:02:23;;;;;;;;;;;;;;;25.77;29.95;100566.56;20399174;28;96874;-81
2022/05/15 12:12:23;;;;;;;2.35;1.38;;;;;;;25.83;29.78;100550.06;20408616;28;97348;-81
2022/05/15 12:22:24;;;;;;;1.73;1.58;;;;;;;25.88;29.56;100547.81;20408238;28;97884;-82
2022/05/15 12:32:37;;;;;;;3.05;1.70;;;;;;;26.00;29.26;100534.34;20408841;28;97293;-78
2022/05/15 12:42:42;;;;;;;2.47;1.33;;;;;;;26.07;29.57;100526.69;20399216;28;101719;-80
2022/05/15 12:52:43;;;;;;;8.20;2.05;;;;;;;26.14;29.72;100511.84;20431990;28;98087;-78
2022/05/15 13:02:45;;;;;;;3.20;2.05;;;;;;;26.20;29.56;100506.75;20394936;28;97003;-78
2022/05/15 13:13:10;;;;;;;;;;;;;;;26.31;30.44;100502.22;20391034;28;96962;-77
2022/05/15 13:23:12;;;;;;;4.60;1.88;;;;;;;26.35;30.38;100482.34;20392161;28;97296;-78
2022/05/15 13:33:18;;;;;;;3.80;1.90;;;;;;;26.42;29.82;100472.81;20403672;28;96833;-78
2022/05/15 13:43:38;;;;;;;4.03;1.90;;;;;;;26.50;30.82;100464.91;20373910;28;97653;-77
2022/05/15 13:53:40;;;;;;;14.57;2.47;;;;;;;26.61;29.93;100455.03;20456044;28;99003;-77
2022/05/15 14:03:43;;;;;;;6.95;2.20;;;;;;;26.65;30.03;100451.09;20448190;28;97456;-77
2022/05/15 14:13:48;;;;;;;4.03;1.65;;;;;;;26.72;29.80;100435.38;20433212;28;100583;-77
2022/05/15 14:23:49;;;;;;;4.07;1.48;;;;;;;26.77;29.38;100430.44;20434572;28;100408;-75
2022/05/15 14:33:50;;;;;;;6.53;2.00;;;;;;;26.80;29.90;100433.63;20367314;28;98288;-76
2022/05/15 14:43:50;;;;;;;4.47;2.00;;;;;;;26.81;29.38;100423.84;20404834;28;96913;-75
2022/05/15 14:53:52;;;;;;;4.72;2.30;;;;;;;26.87;29.72;100425.88;20391948;28;100786;-75
2022/05/15 15:03:53;;;;;;;3.83;2.30;;;;;;;26.89;29.27;100418.59;20378299;28;97945;-74
2022/05/15 15:13:59;;;;;;;4.38;2.20;;;;;;;26.92;29.00;100410.31;20441324;28;97526;-75
2022/05/15 15:24:00;;;;;;;4.20;2.30;;;;;;;27.00;29.76;100405.06;20432470;28;99381;-75
2022/05/15 15:34:06;;;;;;;5.87;2.37;;;;;;;27.09;30.63;100403.25;20438788;28;97388;-75
2022/05/15 15:44:08;;;;;;;9.10;2.20;;;;;;;27.06;30.32;100408.06;20434448;28;97230;-75
2022/05/15 15:54:11;;;;;;;7.18;2.38;;;;;;;27.04;29.55;100402.91;20453574;28;97532;-75
2022/05/15 16:04:13;;;;;;;7.05;2.55;;;;;;;27.00;29.43;100402.38;20452608;28;100597;-75
2022/05/15 16:14:13;;;;;;;4.22;2.40;;;;;;;26.98;29.41;100404.38;20445840;28;100024;-74
2022/05/15 16:24:18;;;;;;;16.03;8.57;;;;;;;27.00;28.58;100397.06;20474536;28;97322;-75
2022/05/15 16:34:18;;;;;;;14.23;6.25;;;;;;;26.97;28.46;100394.72;20462148;28;97567;-75
2022/05/15 16:44:19;;;;;;;11.38;5.95;;;;;;;26.94;28.59;100403.03;20469225;28;97150;-75
2022/05/15 16:54:19;;;;;;;5.70;3.63;;;;;;;26.90;28.16;100414.13;20474132;28;98526;-74
2022/05/15 17:04:20;;;;;;;8.70;4.65;;;;;;;26.83;27.83;100401.47;20469577;28;99161;-76
2022/05/15 17:14:21;;;;;;;9.70;3.70;;;;;;;26.81;28.23;100413.22;20464516;28;101383;-77
2022/05/15 17:24:27;;;;;;;6.63;3.28;;;;;;;26.59;28.43;100422.50;20461481;28;100913;-78
2022/05/15 17:34:28;;;;;;;6.45;1.85;;;;;;;26.56;27.15;100420.97;20454853;28;97994;-75
2022/05/15 17:44:31;;;;;;;6.75;2.30;;;;;;;26.49;27.93;100422.59;20447059;28;100559;-73
2022/05/15 17:54:31;;;;;;;7.18;2.92;;;;;;;26.39;28.77;100427.13;20458482;28;97432;-74
2022/05/15 18:04:32;;;;;;;10.82;4.38;;;;;;;26.34;28.64;100425.78;20465697;28;97250;-75
2022/05/15 18:14:34;;;;;;;6.80;3.40;;;;;;;26.30;29.12;100434.19;20451755;28;101191;-74
2022/05/15 18:24:34;;;;;;;;;;;;;;;26.31;29.40;100447.31;20454928;28;97753;-74
2022/05/15 18:34:35;;;;;;;9.25;2.72;;;;;;;26.18;29.47;100457.47;20453269;28;97760;-74
2022/05/15 18:44:36;;;;;;;6.13;2.42;;;;;;;25.93;30.44;100461.63;20430544;28;99089;-75
2022/05/15 18:54:55;;;;;;;;;;;;;;;26.05;30.60;100476.38;20412727;28;99109;-74
2022/05/15 19:04:57;;;;;;;8.00;3.03;;;;;;;26.00;30.58;100490.09;20463497;28;101655;-74
2022/05/15 19:14:57;;;;;;;6.97;2.85;;;;;;;25.91;30.65;100487.50;20459978;28;100209;-74
2022/05/15 19:24:57;;;;;;;6.13;2.90;;;;;;;25.63;30.99;100498.91;20424126;28;97368;-74
2022/05/15 19:34:58;;;;;;;6.10;2.65;;;;;;;25.33;31.62;100503.44;20440844;28;99251;-75
2022/05/15 19:44:59;;;;;;;7.53;2.83;;;;;;;25.26;31.75;100503.19;20426568;28;99539;-75
2022/05/15 19:54:59;;;;;;;4.28;2.78;;;;;;;25.07;31.70;100508.50;20433203;28;97892;-76
2022/05/15 20:15:20;;;;;;;8.07;3.10;;;;;;;24.83;32.40;100522.19;20453960;28;98563;-75
2022/05/15 20:25:20;;;;;;;5.27;2.70;;;;;;;24.73;32.42;100528.34;20457081;28;100648;-76
2022/05/15 20:35:21;;;;;;;4.82;2.45;;;;;;;24.65;32.59;100532.63;20456124;28;97973;-75
2022/05/15 20:45:22;;;;;;;5.30;2.63;;;;;;;24.62;32.80;100539.03;20444946;28;98731;-75
2022/05/15 20:55:23;;;;;;;7.60;2.80;;;;;;;24.60;32.83;100548.94;20425402;28;101677;-75
2022/05/15 21:05:24;;;;;;;5.30;2.50;;;;;;;24.73;32.42;100554.81;20446650;28;100879;-75
2022/05/15 21:15:24;;;;;;;6.82;2.60;;;;;;;24.49;32.93;100552.53;20438490;28;98740;-75
2022/05/15 21:25:25;;;;;;;5.70;2.50;;;;;;;24.20;33.45;100555.94;20436085;28;101696;-72
2022/05/15 21:35:26;;;;;;;5.00;2.80;;;;;;;24.04;33.61;100545.84;20445695;28;106648;-75
2022/05/15 21:45:27;;;;;;;4.28;2.75;;;;;;;23.87;33.50;100554.41;20450645;28;98295;-75
2022/05/15 21:55:27;;;;;;;3.33;2.10;;;;;;;23.70;33.67;100550.56;20431203;28;100891;-75
2022/05/15 22:05:29;;;;;;;6.22;2.42;;;;;;;23.92;33.16;100541.59;20432248;28;99931;-76
2022/05/15 22:15:30;;;;;;;5.50;3.05;;;;;;;23.87;33.38;100551.75;20433033;28;98162;-75
2022/05/15 22:25:30;;;;;;;5.70;3.07;;;;;;;23.91;33.55;100553.16;20423913;28;97342;-75
2022/05/15 22:35:31;;;;;;;6.80;3.38;;;;;;;23.67;34.35;100547.19;20432422;28;98793;-73
2022/05/15 22:45:31;;;;;;;6.07;2.90;;;;;;;23.69;33.83;100544.41;20435432;28;97852;-75
2022/05/15 22:55:32;;;;;;;6.45;3.00;;;;;;;23.69;34.37;100551.53;20417333;28;99246;-75
2022/05/15 23:15:54;;;;;;;10.02;3.40;;;;;;;23.60;34.28;100550.50;20437242;28;97685;-76
2022/05/15 23:25:58;;;;;;;6.40;3.15;;;;;;;23.88;33.89;100533.09;20404544;28;97643;-75
2022/05/15 23:35:58;;;;;;;6.53;3.03;;;;;;;23.74;34.02;100542.25;20423305;28;98597;-76
2022/05/15 23:46:00;;;;;;;7.45;2.95;;;;;;;23.62;33.71;100540.63;20431552;28;97687;-76
2022/05/15 23:56:01;;;;;;;7.37;3.30;;;;;;;23.46;33.90;100539.31;20435827;28;96982;-76
